Time;durP1;ratioP1;P1;durP2;ratioP2;P2;SDS_P1;SDS_P2;PMS_P1;PMS_P2;Temp;Humidity;BMP_temperature;BMP_pressure;BME280_temperature;BME280_humidity;BME280_pressure;Samples;Min_cycle;Max_cycle;Signal;HPM_P1;HPM_P2
2022/03/09 00:02:15;;;;;;;2.33;2.23;;;18.20;33.40;;;;;;5143509;27;20215;-63
2022/03/09 00:04:41;;;;;;;2.43;2.23;;;18.30;33.50;;;;;;5138987;27;20246;-63
2022/03/09 00:07:06;;;;;;;2.67;2.47;;;18.20;33.50;;;;;;5143554;27;20220;-62
2022/03/09 00:09:32;;;;;;;2.40;2.30;;;18.20;33.50;;;;;;5143109;27;20299;-62
2022/03/09 00:11:58;;;;;;;2.27;2.17;;;18.20;33.50;;;;;;5141106;27;20660;-63
2022/03/09 00:14:23;;;;;;;1.90;1.80;;;18.20;33.40;;;;;;5145121;27;20993;-62
2022/03/09 00:16:50;;;;;;;2.43;2.20;;;18.20;33.50;;;;;;5138103;27;20241;-62
2022/03/09 00:19:16;;;;;;;2.00;1.90;;;18.20;33.50;;;;;;5140647;27;20272;-63
2022/03/09 00:21:42;;;;;;;1.80;1.70;;;18.20;33.50;;;;;;5140345;27;20444;-63
2022/03/09 00:24:07;;;;;;;2.30;2.20;;;18.20;33.50;;;;;;5144158;27;20222;-63
2022/03/09 00:26:33;;;;;;;1.90;1.80;;;18.20;33.50;;;;;;5136962;27;20221;-62
2022/03/09 00:28:59;;;;;;;2.00;1.90;;;18.20;33.50;;;;;;5143646;27;20226;-62
2022/03/09 00:31:24;;;;;;;1.80;1.70;;;18.20;33.50;;;;;;5139539;27;20254;-62
2022/03/09 00:33:50;;;;;;;2.50;2.30;;;18.20;33.50;;;;;;5141870;27;20231;-62
2022/03/09 00:36:15;;;;;;;2.30;2.20;;;18.20;33.50;;;;;;5143489;27;20659;-62
2022/03/09 00:38:41;;;;;;;1.90;1.80;;;18.20;33.50;;;;;;5140604;27;20271;-62
2022/03/09 00:41:07;;;;;;;1.83;1.73;;;18.20;33.50;;;;;;5144351;27;20318;-62
2022/03/09 00:43:32;;;;;;;2.23;2.13;;;18.20;33.50;;;;;;5140580;27;20231;-60
2022/03/09 00:45:58;;;;;;;2.07;1.97;;;18.20;33.50;;;;;;5127101;27;20219;-63
2022/03/09 00:48:23;;;;;;;2.17;2.07;;;18.20;33.50;;;;;;5138035;27;20214;-61
2022/03/09 00:50:49;;;;;;;2.20;2.10;;;18.20;33.50;;;;;;5140516;27;20215;-63
2022/03/09 00:53:14;;;;;;;2.40;2.30;;;18.20;33.50;;;;;;5140885;27;20765;-62
2022/03/09 00:55:40;;;;;;;3.50;2.20;;;18.20;33.50;;;;;;5138205;27;20257;-63
2022/03/09 00:58:06;;;;;;;1.90;1.80;;;18.20;33.50;;;;;;5140520;27;20219;-63
2022/03/09 01:00:32;;;;;;;2.00;1.90;;;18.20;33.50;;;;;;5145577;27;20548;-62
2022/03/09 01:02:58;;;;;;;1.80;1.70;;;18.20;33.50;;;;;;5139796;27;20290;-63
2022/03/09 01:05:23;;;;;;;2.33;2.13;;;18.20;33.50;;;;;;5141698;27;20647;-61
2022/03/09 01:07:49;;;;;;;1.90;1.80;;;18.20;33.50;;;;;;5145032;27;20405;-63
2022/03/09 01:10:15;;;;;;;1.83;1.73;;;18.20;33.50;;;;;;5142384;27;20332;-62
2022/03/09 01:12:40;;;;;;;1.90;1.80;;;18.20;33.50;;;;;;5136735;27;20219;-63
2022/03/09 01:15:07;;;;;;;1.80;1.70;;;18.20;33.50;;;;;;5123070;27;20223;-63
2022/03/09 01:17:33;;;;;;;2.00;1.90;;;18.20;33.50;;;;;;5140547;27;20656;-62
2022/03/09 01:19:59;;;;;;;2.00;1.90;;;18.20;33.50;;;;;;5136985;27;20467;-62
2022/03/09 01:22:25;;;;;;;2.17;2.07;;;18.20;33.50;;;;;;5141852;27;20445;-63
2022/03/09 01:24:51;;;;;;;1.93;1.83;;;18.20;33.60;;;;;;5142458;27;20921;-63
2022/03/09 01:27:16;;;;;;;1.70;1.60;;;18.20;33.50;;;;;;5140498;27;20222;-62
2022/03/09 01:29:42;;;;;;;2.00;1.90;;;18.20;33.50;;;;;;5137663;27;20223;-63
2022/03/09 01:32:08;;;;;;;2.33;2.23;;;18.20;33.50;;;;;;5125598;27;20585;-62
2022/03/09 01:34:34;;;;;;;1.80;1.70;;;18.20;33.50;;;;;;5137811;27;20303;-61
2022/03/09 01:36:59;;;;;;;2.10;1.70;;;18.20;33.50;;;;;;5136168;27;20862;-62
2022/03/09 01:39:25;;;;;;;1.80;1.70;;;18.20;33.50;;;;;;5142031;27;20545;-62
2022/03/09 01:41:51;;;;;;;1.87;1.77;;;18.20;33.60;;;;;;5139259;27;20234;-62
2022/03/09 01:44:20;;;;;;;1.70;1.60;;;18.20;33.50;;;;;;5143262;27;20218;-62
2022/03/09 01:46:50;;;;;;;2.17;1.97;;;18.20;33.50;;;;;;5138690;27;20686;-62
2022/03/09 01:49:17;;;;;;;1.83;1.73;;;18.20;33.50;;;;;;5136546;27;20495;-62
2022/03/09 01:51:45;;;;;;;2.10;2.00;;;18.20;33.60;;;;;;5139732;27;20422;-61
2022/03/09 01:54:12;;;;;;;1.90;1.80;;;18.20;33.60;;;;;;5138963;27;20517;-63
2022/03/09 01:56:38;;;;;;;1.60;1.50;;;18.20;33.50;;;;;;5141374;27;20496;-62
2022/03/09 01:59:06;;;;;;;1.90;1.80;;;18.20;33.50;;;;;;5138286;27;20791;-62
2022/03/09 02:01:32;;;;;;;1.60;1.50;;;18.20;33.50;;;;;;5141350;27;20427;-63
2022/03/09 02:03:59;;;;;;;1.77;1.67;;;18.20;33.50;;;;;;5136095;27;20759;-63
2022/03/09 02:06:25;;;;;;;2.03;1.93;;;18.20;33.50;;;;;;5138186;27;20220;-62
2022/03/09 02:11:36;;;;;;;1.70;1.60;;;18.20;33.60;;;;;;5137521;27;20226;-61
2022/03/09 02:14:02;;;;;;;1.90;1.80;;;18.20;33.60;;;;;;5138146;27;20441;-62
2022/03/09 02:16:28;;;;;;;1.93;1.83;;;18.20;33.50;;;;;;5141653;27;20442;-62
2022/03/09 02:18:53;;;;;;;2.10;2.00;;;18.20;33.60;;;;;;5140786;27;20211;-62
2022/03/09 02:21:20;;;;;;;1.83;1.73;;;18.20;33.50;;;;;;5135980;27;20215;-61
2022/03/09 02:23:46;;;;;;;1.90;1.80;;;18.20;33.50;;;;;;5146119;27;20580;-62
2022/03/09 02:26:13;;;;;;;1.63;1.53;;;18.20;33.60;;;;;;5144678;27;20916;-62
2022/03/09 02:28:39;;;;;;;2.10;2.00;;;18.20;33.50;;;;;;5133041;27;20435;-62
2022/03/09 02:31:06;;;;;;;1.70;1.60;;;18.20;33.60;;;;;;5137758;27;20440;-61
2022/03/09 02:33:31;;;;;;;1.90;1.80;;;18.20;33.50;;;;;;5137930;27;20823;-63
2022/03/09 02:35:57;;;;;;;1.90;1.80;;;18.20;33.50;;;;;;5136215;27;20447;-62
2022/03/09 02:38:22;;;;;;;1.57;1.47;;;18.10;33.50;;;;;;5135130;27;20670;-62
2022/03/09 02:40:48;;;;;;;2.10;2.00;;;18.20;33.50;;;;;;5139208;27;20217;-62
2022/03/09 02:43:14;;;;;;;1.80;1.70;;;18.20;33.60;;;;;;5136169;27;20627;-62
2022/03/09 02:45:39;;;;;;;1.93;1.83;;;18.20;33.60;;;;;;5142758;27;20223;-64
2022/03/09 02:48:05;;;;;;;1.83;1.73;;;18.20;33.50;;;;;;5143830;27;20559;-62
2022/03/09 02:50:30;;;;;;;1.90;1.80;;;18.10;33.50;;;;;;5142868;27;20234;-61
2022/03/09 02:52:56;;;;;;;1.63;1.53;;;18.20;33.50;;;;;;5141032;27;20821;-62
2022/03/09 02:55:22;;;;;;;2.00;1.90;;;18.20;33.50;;;;;;5145234;27;20305;-61
2022/03/09 02:57:47;;;;;;;1.90;1.80;;;18.20;33.60;;;;;;5140607;27;20302;-62
2022/03/09 03:00:13;;;;;;;2.00;1.90;;;18.10;33.50;;;;;;5147653;27;20219;-61
2022/03/09 03:02:39;;;;;;;2.10;2.00;;;18.20;33.50;;;;;;5142047;27;20220;-62
2022/03/09 03:05:06;;;;;;;1.97;1.87;;;18.10;33.50;;;;;;5142267;27;20410;-62
2022/03/09 03:07:32;;;;;;;1.70;1.60;;;18.20;33.50;;;;;;5143704;27;20667;-62
2022/03/09 03:09:58;;;;;;;1.90;1.80;;;18.20;33.60;;;;;;5139703;27;20424;-62
2022/03/09 03:12:24;;;;;;;1.57;1.47;;;18.20;33.60;;;;;;5146783;27;20450;-61
2022/03/09 03:14:49;;;;;;;2.03;1.83;;;18.10;33.50;;;;;;5150833;27;20232;-62
2022/03/09 03:17:15;;;;;;;1.77;1.67;;;18.10;33.50;;;;;;5140062;27;20704;-61
2022/03/09 03:19:40;;;;;;;1.70;1.60;;;18.10;33.50;;;;;;5139726;27;20569;-62
2022/03/09 03:22:06;;;;;;;1.60;1.50;;;18.20;33.50;;;;;;5143544;27;20301;-62
2022/03/09 03:24:32;;;;;;;1.70;1.60;;;18.10;33.50;;;;;;5145499;27;20645;-62
2022/03/09 03:26:57;;;;;;;2.00;1.90;;;18.20;33.60;;;;;;5142052;27;20295;-62
2022/03/09 03:29:23;;;;;;;2.23;2.03;;;18.10;33.50;;;;;;5140484;27;20556;-61
2022/03/09 03:31:48;;;;;;;2.00;1.90;;;18.20;33.50;;;;;;5136883;27;20223;-61
2022/03/09 03:34:14;;;;;;;2.00;1.90;;;18.20;33.50;;;;;;5140756;27;20231;-62
2022/03/09 03:36:40;;;;;;;1.80;1.70;;;18.10;33.50;;;;;;5146212;27;20925;-62
2022/03/09 03:39:05;;;;;;;1.73;1.60;;;18.10;33.50;;;;;;5143180;27;20667;-62
2022/03/09 03:41:31;;;;;;;2.00;1.90;;;18.20;33.50;;;;;;5148129;27;20220;-62
2022/03/09 03:43:56;;;;;;;1.70;1.60;;;18.20;33.50;;;;;;5142639;27;20219;-62
2022/03/09 03:46:22;;;;;;;1.80;1.70;;;18.20;33.50;;;;;;5142111;27;20266;-62
2022/03/09 03:48:48;;;;;;;1.70;1.60;;;18.10;33.30;;;;;;5143182;27;20272;-62
2022/03/09 03:51:14;;;;;;;1.90;1.80;;;18.20;33.50;;;;;;5141517;27;20219;-62
2022/03/09 03:53:40;;;;;;;1.70;1.60;;;18.20;33.50;;;;;;5145685;27;20322;-62
2022/03/09 03:56:06;;;;;;;1.90;1.80;;;18.20;33.50;;;;;;5144110;27;20506;-62
2022/03/09 03:58:32;;;;;;;2.10;2.00;;;18.20;33.50;;;;;;5139783;27;20329;-62
2022/03/09 04:00:58;;;;;;;1.83;1.73;;;18.20;33.50;;;;;;5145438;27;20508;-62
2022/03/09 04:03:23;;;;;;;1.80;1.70;;;18.10;33.40;;;;;;5140229;27;20682;-61
2022/03/09 04:05:49;;;;;;;1.70;1.60;;;18.20;33.50;;;;;;5142420;27;20243;-62
2022/03/09 04:08:14;;;;;;;2.23;2.07;;;18.10;33.50;;;;;;5140737;27;20211;-61
2022/03/09 04:10:40;;;;;;;2.20;1.60;;;18.10;33.50;;;;;;5143990;27;20241;-62
2022/03/09 04:13:06;;;;;;;1.70;1.60;;;18.10;33.50;;;;;;5144349;27;20217;-62
2022/03/09 04:15:32;;;;;;;2.70;1.90;;;18.10;33.40;;;;;;5150795;27;20255;-61
2022/03/09 04:17:58;;;;;;;1.83;1.73;;;18.10;33.50;;;;;;5145534;27;20253;-62
2022/03/09 04:20:24;;;;;;;1.80;1.70;;;18.10;33.40;;;;;;5141423;27;20773;-62
2022/03/09 04:22:50;;;;;;;1.83;1.73;;;18.10;33.50;;;;;;5144355;27;20429;-61
2022/03/09 04:25:16;;;;;;;1.90;1.80;;;18.10;33.50;;;;;;5142862;27;20483;-62
2022/03/09 04:27:42;;;;;;;1.47;1.37;;;18.20;33.50;;;;;;5138419;27;20232;-62
2022/03/09 04:30:09;;;;;;;1.57;1.47;;;18.10;33.50;;;;;;5143538;27;20456;-61
2022/03/09 04:32:36;;;;;;;1.70;1.60;;;18.10;33.50;;;;;;5143373;27;20878;-60
2022/03/09 04:35:02;;;;;;;1.80;1.70;;;18.10;33.50;;;;;;5140558;27;20442;-61
2022/03/09 04:37:31;;;;;;;1.90;1.80;;;18.10;33.40;;;;;;5146229;27;20458;-63
2022/03/09 04:40:01;;;;;;;1.70;1.60;;;18.10;33.50;;;;;;5141808;27;20430;-62
2022/03/09 04:42:27;;;;;;;2.07;1.87;;;18.10;33.40;;;;;;5140911;27;20411;-62
2022/03/09 04:44:53;;;;;;;1.87;1.77;;;18.20;33.40;;;;;;5146317;27;20418;-61
2022/03/09 04:47:19;;;;;;;2.00;1.87;;;18.10;33.40;;;;;;5147928;27;20864;-62
2022/03/09 04:49:45;;;;;;;1.77;1.67;;;18.10;34.10;;;;;;5137822;27;20413;-62
2022/03/09 04:52:11;;;;;;;1.83;1.73;;;18.10;33.30;;;;;;5144742;27;20721;-63
2022/03/09 04:54:37;;;;;;;1.70;1.60;;;18.20;33.50;;;;;;5140697;27;20900;-62
2022/03/09 04:57:03;;;;;;;1.60;1.50;;;18.10;33.30;;;;;;5145848;27;20227;-62
2022/03/09 04:59:28;;;;;;;2.17;1.97;;;18.10;33.30;;;;;;5142489;27;20243;-68
2022/03/09 05:01:54;;;;;;;1.77;1.67;;;18.20;33.40;;;;;;5139906;27;20220;-66
2022/03/09 05:04:19;;;;;;;2.00;1.90;;;18.10;33.30;;;;;;5143406;27;20243;-71
2022/03/09 05:06:45;;;;;;;1.70;1.60;;;18.20;33.70;;;;;;5140305;27;20241;-70
2022/03/09 05:09:10;;;;;;;1.70;1.60;;;18.10;33.30;;;;;;5145797;27;20214;-67
2022/03/09 05:11:36;;;;;;;2.00;1.90;;;18.20;33.30;;;;;;5140047;27;20227;-67
2022/03/09 05:14:02;;;;;;;1.93;1.83;;;18.20;33.20;;;;;;5143699;27;20224;-66
2022/03/09 05:16:27;;;;;;;1.60;1.50;;;18.20;33.20;;;;;;5144190;27;20215;-66
2022/03/09 05:18:53;;;;;;;1.90;1.80;;;18.30;33.20;;;;;;5137167;27;20208;-65
2022/03/09 05:21:18;;;;;;;1.80;1.70;;;18.30;33.10;;;;;;5139961;27;20613;-64
2022/03/09 05:23:44;;;;;;;1.80;1.70;;;18.30;33.10;;;;;;5139523;27;20230;-64
2022/03/09 05:26:09;;;;;;;2.00;1.80;;;18.30;33.10;;;;;;5140953;27;20253;-64
2022/03/09 05:28:35;;;;;;;1.83;1.73;;;18.30;33.00;;;;;;5137988;27;20227;-60
2022/03/09 05:31:01;;;;;;;1.83;1.73;;;18.30;33.00;;;;;;5139459;27;20214;-64
2022/03/09 05:33:26;;;;;;;1.80;1.70;;;18.30;33.00;;;;;;5142031;27;20273;-63
2022/03/09 05:35:52;;;;;;;2.20;2.07;;;18.30;33.00;;;;;;5137818;27;20219;-63
2022/03/09 05:38:17;;;;;;;1.93;1.83;;;18.30;33.00;;;;;;5143582;27;20216;-62
2022/03/09 05:40:43;;;;;;;1.90;1.80;;;18.30;33.00;;;;;;5139206;27;20695;-61
2022/03/09 05:43:09;;;;;;;2.00;1.90;;;18.30;33.00;;;;;;5137922;27;20643;-61
2022/03/09 05:45:34;;;;;;;2.20;2.00;;;18.30;33.00;;;;;;5148220;27;20221;-61
2022/03/09 05:48:00;;;;;;;2.00;1.90;;;18.30;33.00;;;;;;5141474;27;20541;-62
2022/03/09 05:50:26;;;;;;;1.87;1.77;;;18.30;33.00;;;;;;5137679;27;20701;-63
2022/03/09 05:52:51;;;;;;;1.53;1.43;;;18.30;33.00;;;;;;5141066;27;20256;-63
2022/03/09 05:55:17;;;;;;;1.80;1.70;;;18.30;32.90;;;;;;5142906;27;20304;-63
2022/03/09 05:57:42;;;;;;;1.87;1.77;;;18.30;32.90;;;;;;5138153;27;20257;-63
2022/03/09 06:00:09;;;;;;;1.93;1.83;;;18.30;32.90;;;;;;5139345;27;20234;-61
2022/03/09 06:02:34;;;;;;;2.87;1.80;;;18.30;32.90;;;;;;5141918;27;20624;-62
2022/03/09 06:05:00;;;;;;;2.03;1.90;;;18.30;32.90;;;;;;5142728;27;20436;-62
2022/03/09 06:07:25;;;;;;;2.20;1.73;;;18.30;32.90;;;;;;5141423;27;20211;-63
2022/03/09 06:09:51;;;;;;;3.07;2.43;;;18.30;32.90;;;;;;5140560;27;20247;-62
2022/03/09 06:12:17;;;;;;;2.70;2.50;;;18.40;33.00;;;;;;5141937;27;20658;-63
2022/03/09 06:14:43;;;;;;;2.83;2.63;;;18.30;32.90;;;;;;5139824;27;20231;-62
2022/03/09 06:17:09;;;;;;;3.17;2.97;;;18.30;32.90;;;;;;5141884;27;20951;-62
2022/03/09 06:19:34;;;;;;;3.13;2.93;;;18.40;33.00;;;;;;5139469;27;20223;-62
2022/03/09 06:22:00;;;;;;;6.13;2.80;;;18.30;33.00;;;;;;5143508;27;20211;-62
2022/03/09 06:24:26;;;;;;;3.67;3.10;;;18.30;32.90;;;;;;5140702;27;20210;-61
2022/03/09 06:26:53;;;;;;;3.73;3.43;;;18.30;33.00;;;;;;5136352;27;20251;-61
2022/03/09 06:29:19;;;;;;;3.10;2.90;;;18.30;33.00;;;;;;5144502;27;20207;-63
2022/03/09 06:31:45;;;;;;;4.93;3.90;;;18.30;32.90;;;;;;5141737;27;20454;-66
2022/03/09 06:34:11;;;;;;;4.00;3.60;;;18.40;33.00;;;;;;5146258;27;20443;-65
2022/03/09 06:36:37;;;;;;;5.23;3.50;;;18.30;32.90;;;;;;5144967;27;20243;-63
2022/03/09 06:39:03;;;;;;;4.17;3.83;;;18.30;32.90;;;;;;5146597;27;20211;-63
2022/03/09 06:41:29;;;;;;;7.77;4.33;;;18.30;32.90;;;;;;5136317;27;20436;-62
2022/03/09 06:43:54;;;;;;;6.30;4.30;;;18.30;32.90;;;;;;5143309;27;20220;-63
2022/03/09 06:46:22;;;;;;;6.80;4.20;;;18.30;32.90;;;;;;5143745;27;20294;-62
2022/03/09 06:48:47;;;;;;;4.17;3.87;;;18.30;32.90;;;;;;5148224;27;20207;-63
2022/03/09 06:51:13;;;;;;;6.20;4.47;;;18.30;32.90;;;;;;5146336;27;20971;-63
2022/03/09 06:53:39;;;;;;;4.93;4.43;;;18.30;33.00;;;;;;5144694;27;20227;-62
2022/03/09 06:56:05;;;;;;;4.93;3.80;;;18.30;32.90;;;;;;5141364;27;20846;-63
2022/03/09 06:58:30;;;;;;;5.10;4.60;;;18.30;33.00;;;;;;5139494;27;20212;-62
2022/03/09 07:00:57;;;;;;;4.40;3.70;;;18.30;32.90;;;;;;5145319;27;20275;-63
2022/03/09 07:03:23;;;;;;;4.90;4.50;;;18.30;32.90;;;;;;5145181;27;20295;-63
2022/03/09 07:05:48;;;;;;;4.43;4.00;;;18.30;33.00;;;;;;5155605;27;20488;-62
2022/03/09 07:08:14;;;;;;;4.53;4.03;;;18.30;33.00;;;;;;5139562;27;20233;-62
2022/03/09 07:10:40;;;;;;;5.83;4.77;;;18.30;32.90;;;;;;5136988;27;20230;-62
2022/03/09 07:13:06;;;;;;;4.40;4.10;;;18.30;32.90;;;;;;5145059;27;20208;-62
2022/03/09 07:15:32;;;;;;;8.67;4.33;;;18.30;32.90;;;;;;5128727;27;20212;-63
2022/03/09 07:17:57;;;;;;;5.23;3.90;;;18.30;32.90;;;;;;5141406;27;20235;-62
2022/03/09 07:20:23;;;;;;;5.40;4.90;;;18.30;33.00;;;;;;5144619;27;20510;-63
2022/03/09 07:22:49;;;;;;;7.43;4.70;;;18.30;32.90;;;;;;5148704;27;20663;-63
2022/03/09 07:25:15;;;;;;;4.53;3.93;;;18.30;32.90;;;;;;5143701;27;20223;-63
2022/03/09 07:27:41;;;;;;;4.60;4.20;;;18.40;33.00;;;;;;5145748;27;20273;-62
2022/03/09 07:30:08;;;;;;;5.27;4.30;;;18.40;33.00;;;;;;5141685;27;20953;-60
2022/03/09 07:32:34;;;;;;;4.20;3.90;;;18.40;33.00;;;;;;5140345;27;20985;-63
2022/03/09 07:35:00;;;;;;;9.07;4.70;;;18.40;33.00;;;;;;5143160;27;20457;-63
2022/03/09 07:37:26;;;;;;;5.13;4.67;;;18.40;33.00;;;;;;5139475;27;20505;-65
2022/03/09 07:39:53;;;;;;;5.27;4.77;;;18.40;33.00;;;;;;5143191;27;20526;-64
2022/03/09 07:42:19;;;;;;;10.33;5.20;;;18.40;33.00;;;;;;5142965;27;20660;-63
2022/03/09 07:44:45;;;;;;;4.97;4.50;;;18.40;33.00;;;;;;5140865;27;20437;-62
2022/03/09 07:47:10;;;;;;;5.57;5.07;;;18.40;33.00;;;;;;5135280;27;20417;-63
2022/03/09 07:49:37;;;;;;;9.77;4.97;;;18.40;33.00;;;;;;5145557;27;20599;-63
2022/03/09 07:52:04;;;;;;;5.60;5.00;;;18.40;33.00;;;;;;5141795;27;20216;-62
2022/03/09 07:54:30;;;;;;;5.20;4.70;;;18.40;33.00;;;;;;5142796;27;20451;-68
2022/03/09 07:56:56;;;;;;;5.13;4.20;;;18.40;33.10;;;;;;5138851;27;20411;-65
2022/03/09 07:59:22;;;;;;;5.67;5.10;;;18.40;33.10;;;;;;5147586;27;20250;-64
2022/03/09 08:01:52;;;;;;;5.20;4.33;;;18.40;33.00;;;;;;5144217;27;20491;-65
2022/03/09 08:04:19;;;;;;;5.40;4.83;;;18.40;33.00;;;;;;5149454;27;20305;-64
2022/03/09 08:06:48;;;;;;;9.40;4.90;;;18.40;33.00;;;;;;5146775;27;20487;-64
2022/03/09 08:09:14;;;;;;;5.03;4.57;;;18.40;33.10;;;;;;5140725;27;20444;-64
2022/03/09 08:11:40;;;;;;;7.80;5.70;;;18.40;33.10;;;;;;5141647;27;20417;-63
2022/03/09 08:14:05;;;;;;;5.00;4.57;;;18.40;33.10;;;;;;5144925;27;20232;-63
2022/03/09 08:16:31;;;;;;;8.23;5.03;;;18.40;33.10;;;;;;5144108;27;20645;-63
2022/03/09 08:18:57;;;;;;;5.10;4.60;;;18.40;33.10;;;;;;5140233;27;20223;-64
2022/03/09 08:21:22;;;;;;;5.30;4.77;;;18.40;33.10;;;;;;5141212;27;20222;-62
2022/03/09 08:23:48;;;;;;;7.20;4.80;;;18.40;33.10;;;;;;5144153;27;20656;-64
2022/03/09 08:26:13;;;;;;;5.63;5.10;;;18.40;33.10;;;;;;5143632;27;20220;-63
2022/03/09 08:28:40;;;;;;;5.37;4.43;;;18.40;33.10;;;;;;5143203;27;20847;-64
2022/03/09 08:31:06;;;;;;;6.17;4.70;;;18.40;33.10;;;;;;5137261;27;20234;-63
2022/03/09 08:33:31;;;;;;;7.33;5.40;;;18.40;33.10;;;;;;5141282;27;20445;-60
2022/03/09 08:35:57;;;;;;;6.10;5.50;;;18.40;33.10;;;;;;5140170;27;20227;-65
2022/03/09 08:38:22;;;;;;;8.00;5.10;;;18.40;33.20;;;;;;5138583;27;20211;-67
2022/03/09 08:40:48;;;;;;;5.23;4.53;;;18.40;33.10;;;;;;5140210;27;20611;-65
2022/03/09 08:43:14;;;;;;;11.70;4.80;;;18.40;33.10;;;;;;5142815;27;20261;-64
2022/03/09 08:45:39;;;;;;;19.40;6.50;;;18.40;33.10;;;;;;5141203;27;20683;-63
2022/03/09 08:48:05;;;;;;;13.23;6.00;;;18.50;33.20;;;;;;5136337;27;20547;-60
2022/03/09 08:50:31;;;;;;;9.17;5.47;;;18.50;33.20;;;;;;5136320;27;20220;-68
2022/03/09 08:52:58;;;;;;;11.17;5.70;;;18.50;33.10;;;;;;5141726;27;20433;-64
2022/03/09 08:55:23;;;;;;;14.20;5.80;;;18.50;33.20;;;;;;5139748;27;20224;-62
2022/03/09 08:57:49;;;;;;;5.93;5.03;;;18.50;33.20;;;;;;5146193;27;20431;-65
2022/03/09 09:00:15;;;;;;;19.50;6.63;;;18.50;33.20;;;;;;5142459;27;20241;-64
2022/03/09 09:02:40;;;;;;;14.00;6.13;;;18.50;33.20;;;;;;5140815;27;20537;-63
2022/03/09 09:05:06;;;;;;;11.57;5.87;;;18.50;33.30;;;;;;5143199;27;20605;-63
2022/03/09 09:07:32;;;;;;;9.80;5.30;;;18.50;33.30;;;;;;5139729;27;20223;-61
2022/03/09 09:09:58;;;;;;;14.20;6.63;;;18.50;33.30;;;;;;5132730;27;20412;-64
2022/03/09 09:12:23;;;;;;;14.43;5.20;;;18.50;33.40;;;;;;5136983;27;20322;-62
2022/03/09 09:14:49;;;;;;;8.13;6.03;;;18.50;33.40;;;;;;5141076;27;20230;-64
2022/03/09 09:17:15;;;;;;;9.37;5.20;;;18.50;33.40;;;;;;5137305;27;20223;-66
2022/03/09 09:19:41;;;;;;;6.67;4.80;;;18.50;33.40;;;;;;5142885;27;20239;-61
2022/03/09 09:22:06;;;;;;;10.63;5.13;;;18.50;33.50;;;;;;5141101;27;20236;-62
2022/03/09 09:24:32;;;;;;;6.77;5.50;;;18.40;33.40;;;;;;5137218;27;21150;-62
2022/03/09 09:26:58;;;;;;;8.17;4.70;;;18.50;33.50;;;;;;5140316;27;20594;-62
2022/03/09 09:29:24;;;;;;;7.53;4.60;;;18.50;33.50;;;;;;5137454;27;20417;-61
2022/03/09 09:31:50;;;;;;;8.10;5.27;;;18.40;33.50;;;;;;5136710;27;20234;-61
2022/03/09 09:34:16;;;;;;;8.53;4.63;;;18.40;33.50;;;;;;5138721;27;20233;-61
2022/03/09 09:36:45;;;;;;;7.40;5.77;;;18.40;33.50;;;;;;5139984;27;20279;-60
2022/03/09 09:39:14;;;;;;;10.40;5.77;;;18.40;33.60;;;;;;5143586;27;20528;-61
2022/03/09 09:41:44;;;;;;;10.27;5.53;;;18.40;33.60;;;;;;5136387;27;20690;-61
2022/03/09 09:44:11;;;;;;;9.13;5.50;;;18.40;33.60;;;;;;5141050;27;20454;-62
2022/03/09 09:46:39;;;;;;;12.53;5.57;;;18.40;33.60;;;;;;5140279;27;20982;-61
2022/03/09 09:49:06;;;;;;;11.60;5.80;;;18.40;33.60;;;;;;5140733;27;20447;-61
2022/03/09 09:51:32;;;;;;;9.93;5.40;;;18.40;33.70;;;;;;5144511;27;20482;-61
2022/03/09 09:53:59;;;;;;;11.17;5.13;;;18.40;33.60;;;;;;5132525;27;21047;-61
2022/03/09 09:56:25;;;;;;;9.37;6.30;;;18.40;33.70;;;;;;5134157;27;20444;-61
2022/03/09 09:58:52;;;;;;;9.03;5.40;;;18.40;33.70;;;;;;5134694;27;20952;-59
2022/03/09 10:01:18;;;;;;;18.63;6.17;;;18.40;33.70;;;;;;5141826;27;20811;-61
2022/03/09 10:03:44;;;;;;;10.37;5.03;;;18.40;33.70;;;;;;5137332;27;20434;-62
2022/03/09 10:06:09;;;;;;;5.53;4.90;;;18.40;33.80;;;;;;5136957;27;20496;-61
2022/03/09 10:08:38;;;;;;;6.00;4.30;;;18.40;33.80;;;;;;5134670;27;20214;-63
2022/03/09 10:11:04;;;;;;;9.57;5.07;;;18.40;33.80;;;;;;5139072;27;20222;-62
2022/03/09 10:13:35;;;;;;;6.70;4.70;;;18.40;33.80;;;;;;5135258;27;20475;-61
2022/03/09 10:16:20;;;;;;;12.60;5.40;;;18.40;33.80;;;;;;5139987;27;20419;-62
2022/03/09 10:18:49;;;;;;;8.30;5.20;;;18.40;33.80;;;;;;5139446;27;20825;-61
2022/03/09 10:21:17;;;;;;;6.37;4.97;;;18.40;33.80;;;;;;5133824;27;20452;-61
2022/03/09 10:24:08;;;;;;;6.90;4.90;;;18.40;33.90;;;;;;5137825;27;20414;-62
2022/03/09 10:26:38;;;;;;;9.07;5.00;;;18.40;33.80;;;;;;5141136;27;20458;-61
2022/03/09 10:29:08;;;;;;;8.00;5.13;;;18.40;33.80;;;;;;5141433;27;20782;-61
2022/03/09 10:31:40;;;;;;;5.37;4.80;;;18.40;33.80;;;;;;5141647;27;20462;-61
2022/03/09 10:34:07;;;;;;;6.50;5.47;;;18.40;33.80;;;;;;5135610;27;20929;-63
2022/03/09 10:36:32;;;;;;;5.37;4.87;;;18.40;33.80;;;;;;5135907;27;20486;-61
2022/03/09 10:39:16;;;;;;;6.47;4.40;;;18.30;33.70;;;;;;5139217;27;20898;-61
2022/03/09 10:41:41;;;;;;;4.33;3.93;;;18.40;33.70;;;;;;5135912;27;20324;-61
2022/03/09 10:44:07;;;;;;;4.90;4.40;;;18.40;33.70;;;;;;5133459;27;20469;-60
2022/03/09 10:46:42;;;;;;;6.73;3.97;;;18.40;33.70;;;;;;5137308;27;20231;-61
2022/03/09 10:49:08;;;;;;;9.50;4.10;;;18.30;33.70;;;;;;5137418;27;20207;-59
2022/03/09 10:51:41;;;;;;;6.17;3.80;;;18.30;33.60;;;;;;5139728;27;20482;-62
2022/03/09 10:54:16;;;;;;;4.50;3.90;;;18.30;33.60;;;;;;5135077;27;20282;-60
2022/03/09 10:56:42;;;;;;;5.03;4.17;;;18.30;33.60;;;;;;5141736;27;20449;-61
2022/03/09 10:59:11;;;;;;;5.00;4.50;;;18.30;33.50;;;;;;5142229;27;20497;-61
2022/03/09 11:01:37;;;;;;;6.13;5.07;;;18.30;33.50;;;;;;5138142;27;20518;-62
2022/03/09 11:04:15;;;;;;;4.07;3.63;;;18.30;33.50;;;;;;5137798;27;20455;-62
2022/03/09 11:06:46;;;;;;;4.13;3.90;;;18.30;33.50;;;;;;5134074;27;20514;-63
2022/03/09 11:09:13;;;;;;;3.90;3.60;;;18.30;33.50;;;;;;5140282;27;20443;-62
2022/03/09 11:11:41;;;;;;;5.03;4.63;;;18.30;33.40;;;;;;5141283;27;20420;-63
2022/03/09 11:14:07;;;;;;;4.77;4.00;;;18.30;33.40;;;;;;5133811;27;20594;-62
2022/03/09 11:16:34;;;;;;;5.93;4.07;;;18.30;33.50;;;;;;5143503;27;20456;-62
2022/03/09 11:19:02;;;;;;;4.33;3.93;;;18.30;33.50;;;;;;5142363;27;20425;-61
2022/03/09 11:21:29;;;;;;;3.87;3.47;;;18.30;33.30;;;;;;5139108;27;20458;-61
2022/03/09 11:23:54;;;;;;;8.87;3.90;;;18.30;33.40;;;;;;5142697;27;20861;-61
2022/03/09 11:26:25;;;;;;;5.27;4.63;;;18.30;33.40;;;;;;5140984;27;20494;-62
2022/03/09 11:29:00;;;;;;;4.30;3.90;;;18.30;33.50;;;;;;5144574;27;20567;-61
2022/03/09 11:31:42;;;;;;;4.57;3.53;;;18.30;33.40;;;;;;5144723;27;20930;-62
2022/03/09 11:34:34;;;;;;;4.13;3.50;;;18.30;33.50;;;;;;5141978;27;20462;-59
2022/03/09 11:37:03;;;;;;;4.70;3.50;;;18.30;33.50;;;;;;5141378;27;20454;-62
2022/03/09 11:39:29;;;;;;;3.97;3.50;;;18.30;33.50;;;;;;5143056;27;20467;-61
2022/03/09 11:42:19;;;;;;;3.50;3.20;;;18.30;33.50;;;;;;5144215;27;20942;-61
2022/03/09 11:44:49;;;;;;;11.47;3.77;;;18.30;33.50;;;;;;5143347;27;20230;-61
2022/03/09 11:47:15;;;;;;;3.93;3.63;;;18.30;33.50;;;;;;5142913;27;20443;-61
2022/03/09 11:49:49;;;;;;;3.40;3.20;;;18.30;33.50;;;;;;5139702;27;20421;-62
2022/03/09 11:52:17;;;;;;;3.23;2.93;;;18.30;33.50;;;;;;5137175;27;20521;-60
2022/03/09 11:54:55;;;;;;;4.20;3.80;;;18.30;33.60;;;;;;5142325;27;20456;-64
2022/03/09 11:57:23;;;;;;;3.37;3.17;;;18.30;33.60;;;;;;5143254;27;20462;-63
2022/03/09 12:00:12;;;;;;;6.37;3.80;;;18.30;33.60;;;;;;5127932;27;20428;-63
2022/03/09 12:02:45;;;;;;;5.37;4.10;;;18.30;33.70;;;;;;5138974;27;20428;-63
2022/03/09 12:05:29;;;;;;;5.50;3.90;;;18.30;33.70;;;;;;5142090;27;20560;-62
2022/03/09 12:07:59;;;;;;;7.37;4.50;;;18.30;33.70;;;;;;5143433;27;20953;-61
2022/03/09 12:10:43;;;;;;;5.90;3.77;;;18.30;33.60;;;;;;5138423;27;20474;-62
2022/03/09 12:13:18;;;;;;;11.87;4.47;;;18.30;33.60;;;;;;5141873;27;20512;-62
2022/03/09 12:16:14;;;;;;;6.80;3.43;;;18.30;33.60;;;;;;5138564;27;20939;-62
2022/03/09 12:18:51;;;;;;;4.20;3.90;;;18.30;33.60;;;;;;5142744;27;20418;-63
2022/03/09 12:21:50;;;;;;;5.27;3.73;;;18.30;33.60;;;;;;5141175;27;20421;-62
2022/03/09 12:24:21;;;;;;;4.27;3.97;;;18.30;33.60;;;;;;5116743;27;20454;-62
2022/03/09 12:26:51;;;;;;;7.07;3.97;;;18.30;33.50;;;;;;5146100;27;20418;-63
2022/03/09 12:29:28;;;;;;;4.67;4.27;;;18.30;33.50;;;;;;5144144;27;20511;-62
2022/03/09 12:32:01;;;;;;;4.23;3.27;;;18.30;33.50;;;;;;5144041;27;20857;-63
2022/03/09 12:34:32;;;;;;;3.50;3.20;;;18.30;33.40;;;;;;5140269;27;20455;-62
2022/03/09 12:36:58;;;;;;;7.17;3.67;;;18.30;33.50;;;;;;5143662;27;20423;-60
2022/03/09 12:39:24;;;;;;;4.27;3.93;;;18.30;33.30;;;;;;5138803;27;20479;-62
2022/03/09 12:41:57;;;;;;;3.80;3.50;;;18.30;33.30;;;;;;5139074;27;20761;-62
2022/03/09 12:44:23;;;;;;;4.57;3.87;;;18.30;33.30;;;;;;5141293;27;20295;-60
2022/03/09 12:46:52;;;;;;;9.00;3.70;;;18.30;33.20;;;;;;5144188;27;20888;-61
2022/03/09 12:49:21;;;;;;;4.00;3.70;;;18.30;33.20;;;;;;5144009;27;20421;-62